Time;durP1;ratioP1;P1;durP2;ratioP2;P2;SDS_P1;SDS_P2;PMS_P1;PMS_P2;Temp;Humidity;BMP_temperature;BMP_pressure;BME280_temperature;BME280_humidity;BME280_pressure;Samples;Min_cycle;Max_cycle;Signal;HPM_P1;HPM_P2
2022/09/23 00:01:00;;;;;;;5.30;1.98;;;;;;;13.50;100.00;99469.93;1700992;82;21573;-59
2022/09/23 00:03:29;;;;;;;2.00;1.90;;;;;;;13.40;100.00;99462.17;1715994;82;21507;-59
2022/09/23 00:06:02;;;;;;;2.25;2.05;;;;;;;13.38;100.00;99468.02;1713383;80;21621;-59
2022/09/23 00:08:29;;;;;;;2.25;2.05;;;;;;;13.39;100.00;99461.33;1720613;82;20990;-59
2022/09/23 00:10:56;;;;;;;3.37;1.80;;;;;;;13.45;100.00;99458.80;1710949;81;21645;-59
2022/09/23 00:13:23;;;;;;;2.27;2.08;;;;;;;13.47;100.00;99455.60;1689455;83;21766;-59
2022/09/23 00:15:51;;;;;;;3.17;1.90;;;;;;;13.48;100.00;99453.80;1724063;81;21607;-59
2022/09/23 00:18:19;;;;;;;1.90;1.80;;;;;;;13.40;100.00;99446.33;1722882;81;21428;-59
2022/09/23 00:20:46;;;;;;;2.25;2.05;;;;;;;13.42;100.00;99453.20;1678209;84;21415;-59
2022/09/23 00:23:12;;;;;;;1.80;1.70;;;;;;;13.47;100.00;99450.77;1718455;79;21671;-59
2022/09/23 00:25:39;;;;;;;2.00;1.70;;;;;;;13.51;100.00;99446.55;1720374;82;22091;-59
2022/09/23 00:28:07;;;;;;;2.00;1.80;;;;;;;13.53;100.00;99447.80;1712577;82;21662;-59
2022/09/23 00:30:34;;;;;;;3.27;1.90;;;;;;;13.56;100.00;99440.55;1725456;81;21507;-59
2022/09/23 00:33:01;;;;;;;4.50;2.27;;;;;;;13.59;100.00;99440.34;1722165;82;21535;-59
2022/09/23 00:35:27;;;;;;;2.52;2.12;;;;;;;13.55;100.00;99432.22;1723311;81;21159;-60
2022/09/23 00:37:55;;;;;;;2.40;2.20;;;;;;;13.52;100.00;99434.19;1722529;81;21882;-58
2022/09/23 00:40:21;;;;;;;2.00;1.90;;;;;;;13.53;100.00;99432.78;1714929;80;21507;-59
2022/09/23 00:42:50;;;;;;;3.10;2.42;;;;;;;13.47;100.00;99427.87;1710090;81;21628;-59
2022/09/23 00:45:17;;;;;;;2.17;1.92;;;;;;;13.41;100.00;99427.75;1713095;82;21451;-60
2022/09/23 00:47:50;;;;;;;4.53;2.33;;;;;;;13.44;100.00;99430.68;1718814;82;21514;-59
2022/09/23 00:50:26;;;;;;;2.10;1.87;;;;;;;13.50;100.00;99432.95;1718107;81;22030;-59
2022/09/23 00:52:55;;;;;;;4.10;2.00;;;;;;;13.53;100.00;99424.86;1710910;82;21602;-59
2022/09/23 00:55:32;;;;;;;2.40;2.22;;;;;;;13.55;100.00;99425.62;1722406;81;21491;-59
2022/09/23 00:58:01;;;;;;;2.23;2.03;;;;;;;13.60;100.00;99430.65;1729360;80;21498;-59
2022/09/23 01:00:30;;;;;;;2.67;2.47;;;;;;;13.62;100.00;99427.45;1713547;82;21609;-59
2022/09/23 01:02:56;;;;;;;4.35;2.45;;;;;;;13.62;100.00;99426.12;1708325;81;21753;-59
2022/09/23 01:05:23;;;;;;;5.20;2.37;;;;;;;13.60;100.00;99428.85;1724979;80;21456;-59
2022/09/23 01:07:52;;;;;;;3.45;2.15;;;;;;;13.62;100.00;99431.41;1713849;82;22017;-59
2022/09/23 01:10:20;;;;;;;2.52;2.35;;;;;;;13.59;100.00;99424.49;1711196;82;21466;-59
2022/09/23 01:13:16;;;;;;;2.15;2.05;;;;;;;13.60;100.00;99428.85;1716425;80;21058;-61
2022/09/23 01:16:01;;;;;;;3.05;2.27;;;;;;;13.63;100.00;99430.45;1720714;82;22088;-59
2022/09/23 01:18:51;;;;;;;2.40;2.20;;;;;;;13.63;100.00;99426.01;1710856;82;21519;-60
2022/09/23 01:21:30;;;;;;;2.40;2.15;;;;;;;13.67;100.00;99425.84;1725758;81;21507;-59
2022/09/23 01:24:54;;;;;;;2.80;2.55;;;;;;;13.62;100.00;99424.80;1724232;81;21644;-59
2022/09/23 01:27:56;;;;;;;3.12;2.47;;;;;;;13.58;100.00;99429.41;1719251;82;21523;-60
2022/09/23 01:30:43;;;;;;;2.25;2.15;;;;;;;13.50;100.00;99422.39;1685160;82;22013;-60
2022/09/23 01:33:25;;;;;;;2.62;2.42;;;;;;;13.50;100.00;99425.51;1719129;81;21496;-60
2022/09/23 01:36:10;;;;;;;2.60;2.40;;;;;;;13.50;100.00;99425.51;1724982;82;21526;-61
2022/09/23 01:39:12;;;;;;;4.03;2.33;;;;;;;13.47;100.00;99424.36;1686251;83;21551;-60
2022/09/23 01:42:16;;;;;;;3.77;2.50;;;;;;;13.52;100.00;99426.27;1723013;82;21507;-59
2022/09/23 01:44:47;;;;;;;3.08;2.80;;;;;;;13.53;100.00;99422.22;1725011;81;21846;-60
2022/09/23 01:47:26;;;;;;;3.22;2.37;;;;;;;13.48;100.00;99425.59;1721132;80;21586;-59
2022/09/23 01:50:55;;;;;;;;;;;;;;;13.53;100.00;99430.14;1670289;84;21010;-59
2022/09/23 01:52:42;;;;;;;2.92;2.72;;;;;;;13.54;100.00;99419.97;1664635;84;20445;-60
2022/09/23 01:55:25;;;;;;;2.70;2.45;;;;;;;13.56;100.00;99421.18;1712245;82;21597;-59
2022/09/23 01:58:11;;;;;;;3.42;3.00;;;;;;;13.59;100.00;99415.73;1715060;81;21818;-60
2022/09/23 02:00:42;;;;;;;3.02;2.62;;;;;;;13.59;100.00;99416.57;1722834;80;21495;-59
2022/09/23 02:03:14;;;;;;;5.47;2.90;;;;;;;13.59;100.00;99415.73;1716862;82;21609;-60
2022/09/23 02:05:47;;;;;;;2.85;2.65;;;;;;;13.61;100.00;99418.65;1717448;82;21515;-60
2022/09/23 02:08:22;;;;;;;3.02;2.72;;;;;;;13.63;100.00;99413.28;1716599;82;20990;-59
2022/09/23 02:10:57;;;;;;;3.20;3.00;;;;;;;13.59;100.00;99419.21;1714027;82;21955;-60
2022/09/23 02:14:00;;;;;;;3.37;3.12;;;;;;;13.60;100.00;99414.32;1736780;80;21491;-60
2022/09/23 02:16:40;;;;;;;3.08;2.83;;;;;;;13.54;100.00;99408.09;1642428;84;21066;-59
2022/09/23 02:19:35;;;;;;;4.17;3.25;;;;;;;13.41;100.00;99411.91;1665973;85;21460;-60
2022/09/23 02:22:12;;;;;;;3.35;3.15;;;;;;;13.42;100.00;99408.31;1661098;85;21068;-60
2022/09/23 02:24:40;;;;;;;3.25;2.95;;;;;;;13.47;100.00;99409.83;1652771;84;21911;-60
2022/09/23 02:27:24;;;;;;;3.10;2.90;;;;;;;13.52;100.00;99409.09;1663848;84;21461;-60
2022/09/23 02:29:56;;;;;;;3.33;3.02;;;;;;;13.54;100.00;99413.38;1661441;85;21658;-60
2022/09/23 02:32:49;;;;;;;4.75;3.60;;;;;;;13.55;100.00;99408.45;1660656;85;21540;-60
2022/09/23 02:35:31;;;;;;;3.72;3.08;;;;;;;13.54;100.00;99408.09;1666125;84;21491;-60
2022/09/23 02:38:30;;;;;;;3.15;2.92;;;;;;;13.54;100.00;99400.61;1665863;85;22212;-59
2022/09/23 02:41:19;;;;;;;4.37;3.22;;;;;;;13.58;100.00;99407.41;1660380;85;21425;-60
2022/09/23 02:43:54;;;;;;;3.30;2.80;;;;;;;13.55;100.00;99404.97;1661129;85;21484;-59
2022/09/23 02:46:20;;;;;;;3.30;3.00;;;;;;;13.53;100.00;99402.41;1668018;84;21098;-59
2022/09/23 02:49:03;;;;;;;3.05;2.77;;;;;;;13.52;100.00;99402.02;1665781;85;21452;-60
2022/09/23 02:51:33;;;;;;;3.77;3.47;;;;;;;13.55;100.00;99401.84;1663342;85;21755;-60
2022/09/23 02:53:58;;;;;;;3.65;3.33;;;;;;;13.52;100.00;99405.98;1666362;84;21421;-61
2022/09/23 02:56:25;;;;;;;3.85;3.55;;;;;;;13.45;100.00;99399.38;1667482;84;21440;-60
2022/09/23 02:58:52;;;;;;;3.17;2.98;;;;;;;13.47;100.00;99401.91;1666828;85;21531;-60
2022/09/23 03:01:46;;;;;;;3.50;3.20;;;;;;;13.49;100.00;99404.02;1660211;85;21598;-60
2022/09/23 03:04:42;;;;;;;3.35;3.05;;;;;;;13.51;100.00;99402.13;1662451;84;21798;-60
2022/09/23 03:07:32;;;;;;;3.55;3.25;;;;;;;13.54;100.00;99405.89;1668708;84;21559;-60
2022/09/23 03:10:20;;;;;;;3.85;3.10;;;;;;;13.51;100.00;99402.97;1660008;85;21016;-60
2022/09/23 03:13:14;;;;;;;3.87;3.08;;;;;;;13.44;100.00;99405.59;1665400;84;21575;-60
2022/09/23 03:15:56;;;;;;;3.22;3.02;;;;;;;13.40;100.00;99404.08;1664605;84;21617;-60
2022/09/23 03:18:51;;;;;;;3.52;3.22;;;;;;;13.41;100.00;99408.39;1665114;84;21835;-60
2022/09/23 03:21:31;;;;;;;4.20;3.40;;;;;;;13.38;100.00;99404.63;1661113;84;21800;-60
2022/09/23 03:23:59;;;;;;;3.22;2.92;;;;;;;13.38;100.00;99401.52;1657460;84;21513;-60
2022/09/23 03:26:32;;;;;;;4.17;3.35;;;;;;;13.40;100.00;99404.91;1666552;85;21576;-60
2022/09/23 03:29:05;;;;;;;2.98;2.77;;;;;;;13.45;100.00;99405.98;1662403;85;21421;-60
2022/09/23 03:31:32;;;;;;;4.55;2.83;;;;;;;13.47;100.00;99405.87;1655619;85;21844;-60
2022/09/23 03:34:00;;;;;;;3.30;3.10;;;;;;;13.52;100.00;99411.27;1664082;84;20976;-60
2022/09/23 03:36:50;;;;;;;3.22;2.92;;;;;;;13.52;100.00;99411.27;1658032;84;21550;-60
2022/09/23 03:39:29;;;;;;;3.35;3.15;;;;;;;13.54;100.00;99409.41;1657044;85;21472;-60
2022/09/23 03:41:59;;;;;;;3.27;3.08;;;;;;;13.56;100.00;99410.16;1659580;85;21544;-60
2022/09/23 03:44:27;;;;;;;2.67;2.47;;;;;;;13.61;100.00;99408.08;1665368;85;22128;-60
2022/09/23 03:47:01;;;;;;;3.83;3.10;;;;;;;13.66;100.00;99414.91;1665597;84;21169;-59
2022/09/23 03:49:31;;;;;;;3.22;3.02;;;;;;;13.66;100.00;99412.27;1665835;84;21043;-60
2022/09/23 03:52:01;;;;;;;3.05;2.85;;;;;;;13.67;100.00;99402.91;1660803;84;21575;-60
2022/09/23 03:54:28;;;;;;;4.53;3.27;;;;;;;13.68;100.00;99407.74;1662185;84;21607;-63
2022/09/23 03:56:59;;;;;;;3.45;3.17;;;;;;;13.70;100.00;99411.14;1667883;84;21827;-61
2022/09/23 03:59:26;;;;;;;3.20;2.90;;;;;;;13.70;100.00;99411.98;1654977;85;21708;-61
2022/09/23 04:01:53;;;;;;;3.37;3.07;;;;;;;13.71;100.00;99411.50;1659734;84;21466;-61
2022/09/23 04:04:19;;;;;;;3.20;2.98;;;;;;;13.65;100.00;99410.55;1663446;84;21539;-59
2022/09/23 04:06:47;;;;;;;3.72;2.92;;;;;;;13.59;100.00;99408.64;1663503;84;21296;-59
2022/09/23 04:09:14;;;;;;;2.85;2.65;;;;;;;13.54;100.00;99405.45;1661348;84;21525;-59
2022/09/23 04:11:40;;;;;;;2.80;2.50;;;;;;;13.46;100.00;99407.66;1653099;84;21524;-59
2022/09/23 04:14:07;;;;;;;3.62;2.42;;;;;;;13.49;100.00;99410.14;1661957;84;21532;-59
2022/09/23 04:16:35;;;;;;;2.30;2.20;;;;;;;13.53;100.00;99404.21;1662692;84;21574;-60
2022/09/23 04:19:02;;;;;;;2.42;2.22;;;;;;;13.65;100.00;99408.75;1663840;85;21444;-59
2022/09/23 04:21:30;;;;;;;2.30;2.20;;;;;;;13.66;100.00;99406.50;1659872;85;22069;-60
2022/09/23 04:23:57;;;;;;;;;;;;;;;13.69;100.00;99409.42;1666518;85;21477;-59
2022/09/23 04:26:23;;;;;;;3.55;2.42;;;;;;;13.68;100.00;99409.06;1661572;85;20436;-59
2022/09/23 04:28:49;;;;;;;3.33;2.37;;;;;;;13.67;100.00;99412.63;1666159;85;21572;-59
2022/09/23 04:31:16;;;;;;;2.60;2.40;;;;;;;13.67;100.00;99412.63;1664739;85;21556;-60
2022/09/23 04:33:43;;;;;;;2.47;2.27;;;;;;;13.71;100.00;99408.86;1661669;85;21850;-59
2022/09/23 04:36:09;;;;;;;2.77;2.58;;;;;;;13.72;100.00;99407.45;1664421;85;21565;-61
2022/09/23 04:38:36;;;;;;;4.10;2.27;;;;;;;13.77;100.00;99408.52;1660300;85;21443;-61
2022/09/23 04:41:02;;;;;;;2.80;2.60;;;;;;;13.80;100.00;99408.31;1662493;85;21547;-61
2022/09/23 04:43:29;;;;;;;3.00;2.40;;;;;;;13.85;100.00;99405.41;1657981;85;21634;-61
2022/09/23 04:46:03;;;;;;;2.50;2.30;;;;;;;13.88;100.00;99410.05;1656614;85;21845;-61
2022/09/23 04:48:29;;;;;;;3.00;2.80;;;;;;;13.90;100.00;99409.92;1659503;85;21149;-61
2022/09/23 04:51:18;;;;;;;2.60;2.40;;;;;;;13.93;100.00;99409.27;1661693;85;21507;-61
2022/09/23 04:53:45;;;;;;;;;;;;;;;13.99;100.00;99410.70;1667208;85;21496;-62
2022/09/23 04:56:16;;;;;;;2.40;2.20;;;;;;;13.97;100.00;99416.55;1658633;85;20425;-61
2022/09/23 04:58:44;;;;;;;2.40;2.20;;;;;;;13.96;100.00;99409.10;1659844;85;21808;-61
2022/09/23 05:01:26;;;;;;;2.67;2.47;;;;;;;13.98;100.00;99413.82;1659635;85;21475;-62
2022/09/23 05:04:04;;;;;;;3.30;3.00;;;;;;;14.00;100.00;99411.09;1659434;85;21529;-61
2022/09/23 05:06:33;;;;;;;3.17;2.67;;;;;;;14.01;100.00;99410.12;1662959;85;21559;-63
2022/09/23 05:09:00;;;;;;;2.83;2.62;;;;;;;14.02;100.00;99415.33;1665151;84;21527;-62
2022/09/23 05:11:29;;;;;;;;;;;;;;;14.05;100.00;99413.44;1663000;85;21889;-62
2022/09/23 05:13:55;;;;;;;2.87;2.67;;;;;;;14.05;100.00;99418.25;1662407;85;20215;-62
2022/09/23 05:16:23;;;;;;;3.75;2.95;;;;;;;14.10;100.00;99412.70;1660464;85;21548;-62
2022/09/23 05:18:50;;;;;;;3.47;3.27;;;;;;;14.13;100.00;99410.72;1658678;85;21563;-62
2022/09/23 05:21:20;;;;;;;3.00;2.80;;;;;;;14.16;100.00;99419.77;1660539;85;21528;-62
2022/09/23 05:23:53;;;;;;;4.55;3.00;;;;;;;14.19;100.00;99413.46;1660767;85;21812;-62
2022/09/23 05:26:24;;;;;;;6.40;3.30;;;;;;;14.23;100.00;99414.13;1662106;85;21576;-62
2022/09/23 05:28:51;;;;;;;3.10;2.80;;;;;;;14.23;100.00;99405.71;1665453;85;21484;-62
2022/09/23 05:31:21;;;;;;;3.15;2.95;;;;;;;14.29;100.00;99413.73;1664960;85;21602;-62
2022/09/23 05:34:02;;;;;;;2.65;2.45;;;;;;;14.29;100.00;99409.29;1661691;85;21603;-62
2022/09/23 05:36:30;;;;;;;3.05;2.85;;;;;;;14.27;100.00;99415.15;1655988;85;21832;-63
2022/09/23 05:38:57;;;;;;;;;;;;;;;14.27;100.00;99415.15;1664536;85;21528;-62
2022/09/23 05:41:24;;;;;;;3.17;2.77;;;;;;;14.28;100.00;99410.25;1666251;85;20445;-61
2022/09/23 05:43:52;;;;;;;2.87;2.67;;;;;;;14.29;100.00;99410.61;1662574;85;21512;-62
2022/09/23 05:46:27;;;;;;;2.98;2.77;;;;;;;14.30;100.00;99414.13;1663740;84;21621;-61
2022/09/23 05:48:55;;;;;;;2.83;2.62;;;;;;;14.33;100.00;99412.12;1662743;85;21827;-61
2022/09/23 05:51:24;;;;;;;3.10;2.90;;;;;;;14.36;100.00;99411.09;1662597;85;21548;-61
2022/09/23 05:53:53;;;;;;;2.90;2.70;;;;;;;14.39;100.00;99413.08;1655978;84;21548;-62
2022/09/23 05:56:21;;;;;;;;;;;;;;;14.41;100.00;99407.22;1667730;85;21557;-62
2022/09/23 05:58:49;;;;;;;4.28;2.37;;;;;;;14.38;100.00;99408.72;1660781;85;20491;-63
2022/09/23 06:01:26;;;;;;;2.95;2.75;;;;;;;14.35;100.00;99412.90;1659524;85;27020;-65
2022/09/23 06:03:56;;;;;;;3.10;2.53;;;;;;;14.39;100.00;99417.05;1660109;85;21505;-65
2022/09/23 06:06:28;;;;;;;3.50;2.65;;;;;;;14.39;100.00;99414.41;1664286;85;21500;-67
2022/09/23 06:08:55;;;;;;;3.20;2.87;;;;;;;14.37;100.00;99414.98;1661357;85;21014;-70
2022/09/23 06:11:22;;;;;;;3.02;2.80;;;;;;;14.38;100.00;99422.42;1663669;85;21519;-66
2022/09/23 06:13:49;;;;;;;2.90;2.70;;;;;;;14.38;100.00;99415.81;1655809;85;22338;-60
2022/09/23 06:16:16;;;;;;;2.65;2.50;;;;;;;14.34;100.00;99419.13;1640639;85;21544;-64
2022/09/23 06:18:44;;;;;;;2.70;2.50;;;;;;;14.34;100.00;99421.77;1663756;85;21583;-64
2022/09/23 06:21:15;;;;;;;3.02;2.77;;;;;;;14.32;100.00;99431.59;1662846;85;21055;-62
2022/09/23 06:23:43;;;;;;;3.10;2.72;;;;;;;14.31;100.00;99427.23;1662241;85;21561;-58
2022/09/23 06:26:11;;;;;;;;;;;;;;;14.26;100.00;99424.05;1665965;85;21834;-58
2022/09/23 06:28:40;;;;;;;2.42;2.33;;;;;;;14.24;100.00;99429.90;1665449;85;20420;-58
2022/09/23 06:31:10;;;;;;;4.42;2.80;;;;;;;14.27;100.00;99427.05;1661308;85;21459;-58
2022/09/23 06:33:37;;;;;;;3.50;2.50;;;;;;;13.98;100.00;99373.33;1658830;85;21468;-58
2022/09/23 06:36:05;;;;;;;3.02;2.77;;;;;;;14.35;100.00;99422.16;1663357;85;21875;-58
2022/09/23 06:38:33;;;;;;;2.67;2.47;;;;;;;14.43;100.00;99428.30;1660569;85;21797;-59
2022/09/23 06:41:00;;;;;;;2.92;2.50;;;;;;;14.53;100.00;99427.23;1662655;85;21122;-59
2022/09/23 06:43:27;;;;;;;3.20;3.00;;;;;;;14.59;100.00;99429.05;1663189;85;21521;-58
2022/09/23 06:45:57;;;;;;;3.08;2.87;;;;;;;14.65;100.00;99424.31;1661129;85;21568;-58
2022/09/23 06:48:24;;;;;;;2.70;2.50;;;;;;;14.67;100.00;99420.62;1657543;85;21552;-59
2022/09/23 06:50:52;;;;;;;2.72;2.50;;;;;;;14.75;100.00;99421.48;1663911;85;21809;-59
2022/09/23 06:53:23;;;;;;;5.62;2.70;;;;;;;14.83;100.00;99423.16;1662891;85;21022;-59
2022/09/23 06:56:00;;;;;;;2.55;2.35;;;;;;;14.87;100.00;99419.84;1665618;85;21599;-58
2022/09/23 06:58:27;;;;;;;2.47;2.22;;;;;;;14.90;100.00;99422.27;1657110;85;21471;-59
2022/09/23 07:00:54;;;;;;;2.02;1.92;;;;;;;14.92;100.00;99423.05;1662022;85;21511;-58
2022/09/23 07:03:21;;;;;;;2.33;2.23;;;;;;;14.97;100.00;99419.61;1642131;85;21647;-59
2022/09/23 07:05:47;;;;;;;2.40;2.30;;;;;;;14.97;100.00;99418.29;1661978;85;21616;-60
2022/09/23 07:08:15;;;;;;;2.58;2.37;;;;;;;15.00;100.00;99418.10;1660407;85;21567;-59
2022/09/23 07:10:41;;;;;;;2.42;2.22;;;;;;;15.03;100.00;99410.42;1663718;85;21007;-59
2022/09/23 07:13:08;;;;;;;3.37;2.27;;;;;;;15.07;100.00;99410.59;1662713;85;21642;-59
2022/09/23 07:15:35;;;;;;;2.05;1.95;;;;;;;15.07;100.00;99411.91;1659343;85;21873;-60
2022/09/23 07:18:01;;;;;;;1.80;1.70;;;;;;;15.06;100.00;99407.59;1673302;84;21484;-60
2022/09/23 07:20:28;;;;;;;2.20;2.10;;;;;;;15.04;100.00;99404.20;1670310;85;20964;-59
2022/09/23 07:22:57;;;;;;;2.33;2.12;;;;;;;15.04;100.00;99408.16;1669911;85;21539;-59
2022/09/23 07:25:23;;;;;;;1.92;1.82;;;;;;;15.10;100.00;99407.76;1672485;85;21587;-59
2022/09/23 07:27:50;;;;;;;1.95;1.85;;;;;;;15.16;100.00;99399.41;1671552;85;22129;-59
2022/09/23 07:30:18;;;;;;;;;;;;;;;15.25;100.00;99400.61;1671200;85;21653;-59
2022/09/23 07:32:45;;;;;;;2.77;2.12;;;;;;;15.21;100.00;99398.64;1672818;84;20515;-59
2022/09/23 07:35:11;;;;;;;2.70;1.85;;;;;;;15.18;100.00;99398.83;1673732;85;21015;-59
2022/09/23 07:37:38;;;;;;;2.45;2.33;;;;;;;15.19;100.00;99399.21;1673442;84;21441;-59
2022/09/23 07:40:06;;;;;;;2.17;1.87;;;;;;;15.18;100.00;99402.34;1672853;85;21843;-59
2022/09/23 07:42:32;;;;;;;3.12;1.92;;;;;;;15.28;100.00;99405.23;1667212;85;21528;-59
2022/09/23 07:44:59;;;;;;;1.95;1.85;;;;;;;15.28;100.00;99407.04;1672522;84;21575;-60
2022/09/23 07:47:25;;;;;;;1.60;1.50;;;;;;;15.32;100.00;99405.39;1670322;84;21012;-59
2022/09/23 07:49:53;;;;;;;5.37;1.90;;;;;;;15.35;100.00;99395.06;1670262;84;21017;-59
2022/09/23 07:52:19;;;;;;;1.50;1.40;;;;;;;15.35;100.00;99392.41;1672436;84;21819;-60
2022/09/23 07:54:47;;;;;;;1.67;1.55;;;;;;;15.38;100.00;99389.57;1671437;83;21093;-59
2022/09/23 07:57:14;;;;;;;3.10;1.60;;;;;;;15.44;100.00;99394.94;1667193;83;21544;-60
2022/09/23 07:59:42;;;;;;;4.30;1.70;;;;;;;15.49;100.00;99387.53;1673858;84;21749;-60
2022/09/23 08:02:09;;;;;;;;;;;;;;;15.54;100.00;99384.95;1639065;86;21491;-59
2022/09/23 08:04:35;;;;;;;1.90;1.45;;;;;;;15.46;100.00;99387.25;1635915;86;22025;-59
2022/09/23 08:07:04;;;;;;;2.00;1.90;;;;;;;15.46;100.00;99388.57;1635075;87;21499;-60
2022/09/23 08:09:40;;;;;;;;;;;;;;;15.47;100.00;99388.96;1635800;87;21475;-60
2022/09/23 08:12:08;;;;;;;3.22;1.82;;;;;;;15.45;100.00;99380.27;1606674;87;20479;-60
2022/09/23 08:14:34;;;;;;;;;;;;;;;15.41;100.00;99383.20;1610551;87;21482;-60
2022/09/23 08:17:04;;;;;;;1.80;1.70;;;;;;;15.35;100.00;99381.36;1605618;88;20462;-59
2022/09/23 08:19:31;;;;;;;3.98;1.75;;;;;;;15.33;100.00;99389.02;1661174;85;24069;-60
2022/09/23 08:21:57;;;;;;;2.65;1.98;;;;;;;15.37;100.00;99383.91;1653766;85;21579;-59
2022/09/23 08:24:25;;;;;;;2.00;1.90;;;;;;;15.37;100.00;99386.56;1660511;85;21554;-59
2022/09/23 08:28:08;;;;;;;2.08;1.90;;;;;;;14.83;100.00;99399.34;1779362;78;22680;-60
2022/09/23 08:30:35;;;;;;;2.05;1.90;;;;;;;15.37;100.00;99393.19;1736826;80;21455;-60
2022/09/23 08:33:02;;;;;;;2.30;2.15;;;;;;;15.40;100.00;99387.66;1690891;83;21781;-61
2022/09/23 08:35:28;;;;;;;2.25;2.05;;;;;;;15.44;100.00;99394.94;1689402;83;21456;-60
2022/09/23 08:37:55;;;;;;;2.65;2.45;;;;;;;15.44;100.00;99388.31;1698591;82;21529;-60
2022/09/23 08:40:21;;;;;;;2.87;2.00;;;;;;;15.45;100.00;99386.05;1699459;83;21522;-60
2022/09/23 08:42:48;;;;;;;2.37;2.27;;;;;;;15.41;100.00;99382.75;1678979;83;21648;-59
2022/09/23 08:45:20;;;;;;;3.95;2.55;;;;;;;15.40;100.00;99387.66;1699502;83;21478;-59
2022/09/23 08:48:04;;;;;;;2.90;2.10;;;;;;;15.40;100.00;99381.53;1698145;83;21466;-60
2022/09/23 08:50:47;;;;;;;2.85;2.65;;;;;;;15.35;100.00;99378.72;1696453;83;21426;-60
2022/09/23 08:53:20;;;;;;;2.67;2.47;;;;;;;15.32;100.00;99381.56;1701290;82;21580;-59
2022/09/23 08:55:48;;;;;;;2.70;2.50;;;;;;;15.34;100.00;99382.78;1700678;83;21454;-61
2022/09/23 08:58:29;;;;;;;2.33;2.22;;;;;;;15.32;100.00;99377.59;1703329;81;21911;-59
2022/09/23 09:01:29;;;;;;;4.17;2.10;;;;;;;15.37;100.00;99380.78;1700517;83;21052;-59
2022/09/23 09:04:15;;;;;;;2.95;1.98;;;;;;;15.37;100.00;99376.81;1695139;82;21634;-58
2022/09/23 09:06:53;;;;;;;2.67;2.10;;;;;;;15.38;100.00;99375.00;1705914;83;21478;-58
2022/09/23 09:09:27;;;;;;;1.55;1.45;;;;;;;15.40;100.00;99373.09;1698895;82;26475;-62
2022/09/23 09:12:03;;;;;;;1.50;1.40;;;;;;;15.32;100.00;99373.61;1699457;83;21513;-59
2022/09/23 09:14:41;;;;;;;1.70;1.60;;;;;;;15.31;100.00;99373.70;1701344;83;21548;-60
2022/09/23 09:17:16;;;;;;;1.98;1.37;;;;;;;15.31;100.00;99376.36;1705311;83;21495;-59
2022/09/23 09:19:56;;;;;;;1.57;1.47;;;;;;;15.32;100.00;99382.05;1704313;83;21543;-59
2022/09/23 09:22:48;;;;;;;2.37;1.50;;;;;;;15.35;100.00;99377.39;1698203;81;21021;-59
2022/09/23 09:25:44;;;;;;;1.27;1.22;;;;;;;15.40;100.00;99377.07;1699141;81;21517;-59
2022/09/23 09:28:56;;;;;;;1.85;1.25;;;;;;;15.42;100.00;99377.81;1684727;81;21547;-57
2022/09/23 09:31:37;;;;;;;1.05;1.00;;;;;;;15.44;100.00;99372.42;1731085;80;21487;-59
2022/09/23 09:34:26;;;;;;;1.47;1.10;;;;;;;15.50;100.00;99376.84;1732702;80;21506;-58
2022/09/23 09:37:14;;;;;;;1.30;1.30;;;;;;;15.55;100.00;99367.24;1726548;81;21517;-60
2022/09/23 09:39:41;;;;;;;1.37;1.27;;;;;;;15.60;100.00;99361.65;1743898;80;21849;-58
2022/09/23 09:42:10;;;;;;;1.45;1.35;;;;;;;15.67;100.00;99367.75;1723102;81;21407;-59
2022/09/23 09:44:53;;;;;;;1.30;1.17;;;;;;;15.81;100.00;99367.31;1697664;81;20985;-60
2022/09/23 09:47:45;;;;;;;1.50;1.40;;;;;;;16.00;100.00;99359.77;1729320;80;21680;-59
2022/09/23 09:50:48;;;;;;;1.85;1.60;;;;;;;16.13;100.00;99357.11;1690400;83;21530;-60
2022/09/23 09:53:29;;;;;;;1.60;1.50;;;;;;;16.15;100.00;99363.15;1669896;84;21592;-59
2022/09/23 09:56:09;;;;;;;1.57;1.47;;;;;;;16.11;100.00;99361.19;1669470;84;21459;-60
2022/09/23 09:58:49;;;;;;;1.67;1.57;;;;;;;15.94;100.00;99357.06;1669690;84;21422;-59
2022/09/23 10:01:31;;;;;;;1.00;0.95;;;;;;;15.87;100.00;99359.77;1659880;84;21578;-59
2022/09/23 10:04:07;;;;;;;3.00;1.07;;;;;;;15.87;100.00;99366.39;1662987;83;21049;-60
2022/09/23 10:06:35;;;;;;;0.80;0.80;;;;;;;15.91;100.00;99364.38;1661984;85;22719;-60
2022/09/23 10:09:17;;;;;;;0.62;0.62;;;;;;;15.98;100.00;99370.95;1669225;85;21635;-60
2022/09/23 10:12:17;;;;;;;0.68;0.68;;;;;;;16.04;100.00;99364.38;1666883;85;21491;-60
2022/09/23 10:14:45;;;;;;;0.70;0.70;;;;;;;16.18;100.00;99368.25;1666305;84;21608;-60
2022/09/23 10:17:14;;;;;;;;;;;;;;;16.23;100.00;99362.12;1684869;83;21436;-60
2022/09/23 10:19:48;;;;;;;0.40;0.40;;;;;;;16.18;100.00;99360.75;1696386;82;21842;-59
2022/09/23 10:22:21;;;;;;;0.70;0.70;;;;;;;16.21;100.00;99359.22;1709741;82;21577;-60
2022/09/23 10:24:51;;;;;;;1.52;0.70;;;;;;;16.23;100.00;99358.14;1707832;82;21059;-60
2022/09/23 10:27:25;;;;;;;0.70;0.70;;;;;;;16.22;100.00;99358.24;1684431;83;20958;-59
2022/09/23 10:29:55;;;;;;;0.90;0.78;;;;;;;16.16;100.00;99355.55;1702508;83;21532;-60
2022/09/23 10:32:31;;;;;;;0.60;0.60;;;;;;;16.10;100.00;99354.17;1683716;83;21773;-59
2022/09/23 10:35:16;;;;;;;0.70;0.70;;;;;;;16.15;100.00;99352.55;1707392;82;21601;-59
2022/09/23 10:37:56;;;;;;;2.67;0.90;;;;;;;16.15;100.00;99352.05;1707354;82;21520;-59
2022/09/23 10:46:37;;;;;;;1.75;1.40;;;;;;;16.04;99.49;99347.14;1706010;83;21650;-60
2022/09/23 10:46:44;;;;;;;1.22;1.17;;;;;;;16.03;99.65;99343.66;1702295;83;22123;-60
2022/09/23 10:49:44;;;;;;;2.65;1.37;;;;;;;16.01;100.00;99347.34;1701373;83;21403;-60
2022/09/23 10:52:26;;;;;;;1.40;1.30;;;;;;;15.90;100.00;99341.00;1699876;82;21505;-60
2022/09/23 10:55:13;;;;;;;1.82;1.72;;;;;;;15.85;100.00;99343.12;1702590;82;21085;-59
2022/09/23 10:58:20;;;;;;;1.27;1.12;;;;;;;15.91;100.00;99344.01;1708299;82;22212;-60
2022/09/23 11:01:17;;;;;;;3.08;1.10;;;;;;;15.87;98.87;99341.69;1702874;82;21994;-59
2022/09/23 11:04:18;;;;;;;1.07;1.00;;;;;;;15.94;97.73;99345.13;1710731;82;20937;-60
2022/09/23 11:07:01;;;;;;;1.27;1.10;;;;;;;15.95;98.05;99343.32;1702215;83;21431;-60
2022/09/23 11:09:41;;;;;;;1.20;1.10;;;;;;;15.86;98.59;99339.98;1707180;82;21442;-60
2022/09/23 11:12:30;;;;;;;0.80;0.80;;;;;;;15.86;98.74;99338.20;1700171;82;21037;-60
2022/09/23 11:15:22;;;;;;;1.15;1.10;;;;;;;15.92;99.35;99335.11;1655928;83;22068;-59
2022/09/23 11:18:07;;;;;;;0.80;0.80;;;;;;;15.96;98.72;99335.27;1666825;82;21574;-59
2022/09/23 11:21:19;;;;;;;1.00;1.00;;;;;;;16.06;100.00;99338.60;1694258;83;21411;-59
2022/09/23 11:24:14;;;;;;;0.88;0.88;;;;;;;16.18;97.39;99340.40;1692393;83;21049;-59
2022/09/23 11:27:05;;;;;;;1.00;1.00;;;;;;;16.20;96.13;99339.81;1700654;83;21527;-59
2022/09/23 11:30:12;;;;;;;0.90;0.90;;;;;;;16.21;96.32;99333.53;1690999;82;21737;-59
2022/09/23 11:33:12;;;;;;;1.02;1.02;;;;;;;16.17;95.59;99334.71;1689836;83;21584;-59
2022/09/23 11:35:44;;;;;;;2.25;0.90;;;;;;;16.16;96.37;99333.00;1696257;83;21529;-59
2022/09/23 11:38:30;;;;;;;1.05;1.00;;;;;;;16.03;95.93;99337.02;1668392;85;21105;-59
2022/09/23 11:41:01;;;;;;;0.90;0.90;;;;;;;16.05;97.38;99337.76;1619070;85;21482;-59
2022/09/23 11:43:32;;;;;;;0.72;0.72;;;;;;;16.15;95.77;99332.65;1653246;86;21797;-60
2022/09/23 11:46:03;;;;;;;0.85;0.85;;;;;;;16.24;95.70;99335.98;1652601;84;21449;-59
2022/09/23 11:48:44;;;;;;;1.27;1.10;;;;;;;16.32;95.51;99326.98;1641692;86;21633;-59
2022/09/23 11:51:22;;;;;;;1.00;1.00;;;;;;;16.42;95.78;99326.33;1646730;85;21270;-60
2022/09/23 11:54:03;;;;;;;0.80;0.72;;;;;;;16.51;96.07;99322.52;1651204;85;21562;-60
2022/09/23 11:56:40;;;;;;;1.25;0.90;;;;;;;16.54;95.20;99323.64;1695426;83;20997;-60
2022/09/23 11:59:24;;;;;;;2.05;0.88;;;;;;;16.54;94.23;99328.95;1687852;83;21459;-60
2022/09/23 12:02:13;;;;;;;0.88;0.88;;;;;;;16.52;92.48;99323.39;1667239;83;21563;-60
2022/09/23 12:04:44;;;;;;;1.87;1.20;;;;;;;16.46;92.00;99317.17;1652851;85;21707;-60
2022/09/23 12:07:15;;;;;;;1.20;1.10;;;;;;;16.44;92.95;99320.42;1661974;85;21739;-61
2022/09/23 12:10:02;;;;;;;1.10;1.10;;;;;;;16.47;93.07;99310.44;1652138;85;21560;-60